sensor_id;sensor_type;location;lat;lon;timestamp;P1;durP1;ratioP1;P2;durP2;ratioP2
68744;SDS011;73143;45.456;11.064;2023-12-20T00:00:19;18.30;;;12.40;;
68744;SDS011;73143;45.456;11.064;2023-12-20T00:02:57;17.60;;;12.40;;
68744;SDS011;73143;45.456;11.064;2023-12-20T00:05:33;16.80;;;9.40;;
68744;SDS011;73143;45.456;11.064;2023-12-20T00:08:12;12.50;;;8.20;;
68744;SDS011;73143;45.456;11.064;2023-12-20T00:10:49;14.60;;;9.50;;
68744;SDS011;73143;45.456;11.064;2023-12-20T00:13:26;59.70;;;37.70;;
68744;SDS011;73143;45.456;11.064;2023-12-20T00:16:04;51.00;;;28.80;;
68744;SDS011;73143;45.456;11.064;2023-12-20T00:18:41;30.20;;;16.90;;
68744;SDS011;73143;45.456;11.064;2023-12-20T00:21:18;23.20;;;11.60;;
68744;SDS011;73143;45.456;11.064;2023-12-20T00:23:55;22.20;;;12.40;;
68744;SDS011;73143;45.456;11.064;2023-12-20T00:26:32;26.40;;;16.70;;
68744;SDS011;73143;45.456;11.064;2023-12-20T00:29:09;19.50;;;11.60;;
68744;SDS011;73143;45.456;11.064;2023-12-20T00:31:46;25.60;;;15.40;;
68744;SDS011;73143;45.456;11.064;2023-12-20T00:34:24;32.50;;;18.60;;
68744;SDS011;73143;45.456;11.064;2023-12-20T00:37:01;32.60;;;19.00;;
68744;SDS011;73143;45.456;11.064;2023-12-20T00:39:38;29.70;;;18.20;;
68744;SDS011;73143;45.456;11.064;2023-12-20T00:42:15;29.30;;;16.70;;
68744;SDS011;73143;45.456;11.064;2023-12-20T00:44:51;25.10;;;15.40;;
68744;SDS011;73143;45.456;11.064;2023-12-20T00:47:28;27.20;;;14.40;;
68744;SDS011;73143;45.456;11.064;2023-12-20T00:50:11;26.30;;;16.10;;
68744;SDS011;73143;45.456;11.064;2023-12-20T00:52:49;30.60;;;15.60;;
68744;SDS011;73143;45.456;11.064;2023-12-20T00:55:28;29.60;;;16.50;;
68744;SDS011;73143;45.456;11.064;2023-12-20T00:58:05;22.80;;;12.90;;
68744;SDS011;73143;45.456;11.064;2023-12-20T01:00:41;18.50;;;9.80;;
68744;SDS011;73143;45.456;11.064;2023-12-20T01:03:19;17.60;;;11.10;;
68744;SDS011;73143;45.456;11.064;2023-12-20T01:05:56;18.40;;;11.10;;
68744;SDS011;73143;45.456;11.064;2023-12-20T01:08:33;16.30;;;9.20;;
68744;SDS011;73143;45.456;11.064;2023-12-20T01:11:11;16.70;;;9.50;;
68744;SDS011;73143;45.456;11.064;2023-12-20T01:13:48;17.60;;;10.50;;
68744;SDS011;73143;45.456;11.064;2023-12-20T01:16:25;15.40;;;10.00;;
68744;SDS011;73143;45.456;11.064;2023-12-20T01:19:02;17.60;;;10.00;;
68744;SDS011;73143;45.456;11.064;2023-12-20T01:21:39;16.30;;;9.40;;
68744;SDS011;73143;45.456;11.064;2023-12-20T01:24:16;17.80;;;9.40;;
68744;SDS011;73143;45.456;11.064;2023-12-20T01:26:52;14.80;;;8.30;;
68744;SDS011;73143;45.456;11.064;2023-12-20T01:29:30;15.40;;;8.30;;
68744;SDS011;73143;45.456;11.064;2023-12-20T01:32:08;14.10;;;9.20;;
68744;SDS011;73143;45.456;11.064;2023-12-20T01:34:45;14.20;;;9.10;;
68744;SDS011;73143;45.456;11.064;2023-12-20T01:37:21;17.10;;;9.10;;
68744;SDS011;73143;45.456;11.064;2023-12-20T01:39:58;17.30;;;9.10;;
68744;SDS011;73143;45.456;11.064;2023-12-20T01:42:34;13.00;;;8.20;;
68744;SDS011;73143;45.456;11.064;2023-12-20T01:45:15;13.10;;;8.00;;
68744;SDS011;73143;45.456;11.064;2023-12-20T01:47:53;11.80;;;7.30;;
68744;SDS011;73143;45.456;11.064;2023-12-20T01:50:30;13.80;;;7.00;;
68744;SDS011;73143;45.456;11.064;2023-12-20T01:53:11;12.10;;;7.10;;
68744;SDS011;73143;45.456;11.064;2023-12-20T01:55:50;13.20;;;7.90;;
68744;SDS011;73143;45.456;11.064;2023-12-20T01:58:29;14.70;;;7.90;;
68744;SDS011;73143;45.456;11.064;2023-12-20T02:01:06;13.30;;;8.10;;
68744;SDS011;73143;45.456;11.064;2023-12-20T02:03:43;16.40;;;8.40;;
68744;SDS011;73143;45.456;11.064;2023-12-20T02:06:24;15.80;;;8.50;;
68744;SDS011;73143;45.456;11.064;2023-12-20T02:09:03;13.10;;;8.80;;
68744;SDS011;73143;45.456;11.064;2023-12-20T02:11:40;13.10;;;8.60;;
68744;SDS011;73143;45.456;11.064;2023-12-20T02:14:18;18.60;;;10.20;;
68744;SDS011;73143;45.456;11.064;2023-12-20T02:16:56;18.80;;;9.50;;
68744;SDS011;73143;45.456;11.064;2023-12-20T02:19:33;15.80;;;9.70;;
68744;SDS011;73143;45.456;11.064;2023-12-20T02:22:11;16.10;;;10.00;;
68744;SDS011;73143;45.456;11.064;2023-12-20T02:24:49;16.10;;;9.50;;
68744;SDS011;73143;45.456;11.064;2023-12-20T02:27:26;21.10;;;11.30;;
68744;SDS011;73143;45.456;11.064;2023-12-20T02:30:05;24.80;;;14.10;;
68744;SDS011;73143;45.456;11.064;2023-12-20T02:32:44;27.20;;;15.40;;
68744;SDS011;73143;45.456;11.064;2023-12-20T02:35:22;22.20;;;13.30;;
68744;SDS011;73143;45.456;11.064;2023-12-20T02:37:59;22.40;;;12.40;;
68744;SDS011;73143;45.456;11.064;2023-12-20T02:40:36;21.10;;;12.60;;
68744;SDS011;73143;45.456;11.064;2023-12-20T02:43:20;24.50;;;14.10;;
68744;SDS011;73143;45.456;11.064;2023-12-20T02:45:58;24.40;;;13.30;;
68744;SDS011;73143;45.456;11.064;2023-12-20T02:48:35;21.20;;;12.70;;
68744;SDS011;73143;45.456;11.064;2023-12-20T02:51:12;22.00;;;12.10;;
68744;SDS011;73143;45.456;11.064;2023-12-20T02:53:48;22.90;;;11.90;;
68744;SDS011;73143;45.456;11.064;2023-12-20T02:56:25;19.80;;;11.10;;
68744;SDS011;73143;45.456;11.064;2023-12-20T02:59:02;20.10;;;10.70;;
68744;SDS011;73143;45.456;11.064;2023-12-20T03:01:44;16.30;;;9.50;;
68744;SDS011;73143;45.456;11.064;2023-12-20T03:04:21;20.30;;;10.90;;
68744;SDS011;73143;45.456;11.064;2023-12-20T03:06:58;18.40;;;10.30;;
68744;SDS011;73143;45.456;11.064;2023-12-20T03:09:35;17.10;;;10.60;;
68744;SDS011;73143;45.456;11.064;2023-12-20T03:12:33;16.20;;;9.40;;
68744;SDS011;73143;45.456;11.064;2023-12-20T03:15:12;15.20;;;9.30;;
68744;SDS011;73143;45.456;11.064;2023-12-20T03:17:49;17.40;;;9.10;;
68744;SDS011;73143;45.456;11.064;2023-12-20T03:20:26;17.40;;;9.40;;
68744;SDS011;73143;45.456;11.064;2023-12-20T03:23:06;17.30;;;9.70;;
68744;SDS011;73143;45.456;11.064;2023-12-20T03:25:43;17.70;;;10.30;;
68744;SDS011;73143;45.456;11.064;2023-12-20T03:28:21;17.00;;;10.70;;
68744;SDS011;73143;45.456;11.064;2023-12-20T03:30:57;15.60;;;9.30;;
68744;SDS011;73143;45.456;11.064;2023-12-20T03:33:35;15.30;;;9.30;;
68744;SDS011;73143;45.456;11.064;2023-12-20T03:36:12;15.60;;;9.60;;
68744;SDS011;73143;45.456;11.064;2023-12-20T03:38:49;17.90;;;9.70;;
68744;SDS011;73143;45.456;11.064;2023-12-20T03:41:25;20.40;;;9.30;;
68744;SDS011;73143;45.456;11.064;2023-12-20T03:44:03;15.80;;;9.30;;
68744;SDS011;73143;45.456;11.064;2023-12-20T03:46:40;16.40;;;9.30;;
68744;SDS011;73143;45.456;11.064;2023-12-20T03:49:17;17.70;;;9.20;;
68744;SDS011;73143;45.456;11.064;2023-12-20T03:51:54;14.30;;;8.00;;
68744;SDS011;73143;45.456;11.064;2023-12-20T03:54:31;14.00;;;7.80;;
68744;SDS011;73143;45.456;11.064;2023-12-20T03:57:09;11.70;;;6.90;;
68744;SDS011;73143;45.456;11.064;2023-12-20T03:59:46;11.50;;;7.30;;
68744;SDS011;73143;45.456;11.064;2023-12-20T04:02:24;11.60;;;7.30;;
68744;SDS011;73143;45.456;11.064;2023-12-20T04:05:00;14.10;;;8.70;;
68744;SDS011;73143;45.456;11.064;2023-12-20T04:07:37;13.20;;;8.70;;
68744;SDS011;73143;45.456;11.064;2023-12-20T04:10:15;13.80;;;7.70;;
68744;SDS011;73143;45.456;11.064;2023-12-20T04:12:53;14.00;;;8.50;;
68744;SDS011;73143;45.456;11.064;2023-12-20T04:15:30;20.70;;;12.70;;
68744;SDS011;73143;45.456;11.064;2023-12-20T04:18:06;22.90;;;11.60;;
68744;SDS011;73143;45.456;11.064;2023-12-20T04:20:43;19.10;;;11.00;;
68744;SDS011;73143;45.456;11.064;2023-12-20T04:23:21;18.60;;;11.80;;
68744;SDS011;73143;45.456;11.064;2023-12-20T04:25:57;20.50;;;11.10;;
68744;SDS011;73143;45.456;11.064;2023-12-20T04:28:35;18.00;;;11.20;;
68744;SDS011;73143;45.456;11.064;2023-12-20T04:31:12;15.90;;;10.40;;
68744;SDS011;73143;45.456;11.064;2023-12-20T04:33:49;18.60;;;11.00;;
68744;SDS011;73143;45.456;11.064;2023-12-20T04:36:26;20.10;;;11.00;;
68744;SDS011;73143;45.456;11.064;2023-12-20T04:39:03;16.80;;;10.20;;
68744;SDS011;73143;45.456;11.064;2023-12-20T04:41:41;17.20;;;10.40;;
68744;SDS011;73143;45.456;11.064;2023-12-20T04:44:19;21.80;;;11.00;;
68744;SDS011;73143;45.456;11.064;2023-12-20T04:46:56;18.80;;;11.20;;
68744;SDS011;73143;45.456;11.064;2023-12-20T04:49:33;19.00;;;9.70;;
68744;SDS011;73143;45.456;11.064;2023-12-20T04:52:10;14.00;;;8.70;;
68744;SDS011;73143;45.456;11.064;2023-12-20T04:54:46;14.80;;;8.50;;
68744;SDS011;73143;45.456;11.064;2023-12-20T04:57:22;14.80;;;8.20;;
68744;SDS011;73143;45.456;11.064;2023-12-20T05:00:00;12.80;;;8.20;;
68744;SDS011;73143;45.456;11.064;2023-12-20T05:02:37;14.00;;;8.00;;
68744;SDS011;73143;45.456;11.064;2023-12-20T05:05:14;13.80;;;8.60;;
68744;SDS011;73143;45.456;11.064;2023-12-20T05:07:51;15.30;;;9.00;;
68744;SDS011;73143;45.456;11.064;2023-12-20T05:10:28;13.00;;;8.50;;
68744;SDS011;73143;45.456;11.064;2023-12-20T05:13:04;16.60;;;9.70;;
68744;SDS011;73143;45.456;11.064;2023-12-20T05:15:41;16.90;;;9.40;;
68744;SDS011;73143;45.456;11.064;2023-12-20T05:18:18;17.00;;;10.00;;
68744;SDS011;73143;45.456;11.064;2023-12-20T05:20:55;14.80;;;9.40;;
68744;SDS011;73143;45.456;11.064;2023-12-20T05:23:31;15.60;;;8.00;;
68744;SDS011;73143;45.456;11.064;2023-12-20T05:26:07;13.30;;;8.30;;
68744;SDS011;73143;45.456;11.064;2023-12-20T05:28:44;13.00;;;7.70;;
68744;SDS011;73143;45.456;11.064;2023-12-20T05:31:21;14.20;;;8.10;;
68744;SDS011;73143;45.456;11.064;2023-12-20T05:33:57;17.40;;;9.90;;
68744;SDS011;73143;45.456;11.064;2023-12-20T05:36:34;19.50;;;9.80;;
68744;SDS011;73143;45.456;11.064;2023-12-20T05:39:11;15.10;;;9.30;;
68744;SDS011;73143;45.456;11.064;2023-12-20T05:41:47;14.20;;;9.00;;
68744;SDS011;73143;45.456;11.064;2023-12-20T05:44:24;15.80;;;8.10;;
68744;SDS011;73143;45.456;11.064;2023-12-20T05:47:01;13.30;;;7.80;;
68744;SDS011;73143;45.456;11.064;2023-12-20T05:49:39;15.00;;;8.60;;
68744;SDS011;73143;45.456;11.064;2023-12-20T05:52:17;11.60;;;7.40;;
68744;SDS011;73143;45.456;11.064;2023-12-20T05:54:54;18.50;;;7.90;;
68744;SDS011;73143;45.456;11.064;2023-12-20T05:57:34;13.80;;;7.80;;
68744;SDS011;73143;45.456;11.064;2023-12-20T06:00:17;16.80;;;7.90;;
68744;SDS011;73143;45.456;11.064;2023-12-20T06:02:56;13.20;;;8.10;;
68744;SDS011;73143;45.456;11.064;2023-12-20T06:05:33;14.90;;;8.40;;
68744;SDS011;73143;45.456;11.064;2023-12-20T06:08:11;15.50;;;8.60;;
68744;SDS011;73143;45.456;11.064;2023-12-20T06:10:48;11.90;;;8.00;;
68744;SDS011;73143;45.456;11.064;2023-12-20T06:13:25;15.30;;;8.70;;
68744;SDS011;73143;45.456;11.064;2023-12-20T06:16:05;13.30;;;7.50;;
68744;SDS011;73143;45.456;11.064;2023-12-20T06:18:42;12.50;;;7.30;;
68744;SDS011;73143;45.456;11.064;2023-12-20T06:21:19;12.70;;;7.90;;
68744;SDS011;73143;45.456;11.064;2023-12-20T06:23:56;14.00;;;8.50;;
68744;SDS011;73143;45.456;11.064;2023-12-20T06:26:33;16.50;;;9.70;;
68744;SDS011;73143;45.456;11.064;2023-12-20T06:29:10;15.20;;;10.00;;
68744;SDS011;73143;45.456;11.064;2023-12-20T06:31:48;17.10;;;10.10;;
68744;SDS011;73143;45.456;11.064;2023-12-20T06:34:24;15.70;;;8.90;;
68744;SDS011;73143;45.456;11.064;2023-12-20T06:37:02;14.00;;;7.90;;
68744;SDS011;73143;45.456;11.064;2023-12-20T06:39:39;15.00;;;9.30;;
68744;SDS011;73143;45.456;11.064;2023-12-20T06:42:17;13.60;;;8.70;;
68744;SDS011;73143;45.456;11.064;2023-12-20T06:44:53;16.40;;;9.10;;
68744;SDS011;73143;45.456;11.064;2023-12-20T06:47:31;15.60;;;9.40;;
68744;SDS011;73143;45.456;11.064;2023-12-20T06:50:10;16.70;;;10.50;;
68744;SDS011;73143;45.456;11.064;2023-12-20T06:52:47;16.40;;;10.40;;
68744;SDS011;73143;45.456;11.064;2023-12-20T06:55:24;15.80;;;10.40;;
68744;SDS011;73143;45.456;11.064;2023-12-20T06:58:01;17.10;;;10.60;;
68744;SDS011;73143;45.456;11.064;2023-12-20T07:00:37;21.80;;;11.70;;
68744;SDS011;73143;45.456;11.064;2023-12-20T07:03:15;18.50;;;11.90;;
68744;SDS011;73143;45.456;11.064;2023-12-20T07:05:52;17.50;;;11.60;;
68744;SDS011;73143;45.456;11.064;2023-12-20T07:08:29;19.90;;;11.30;;
68744;SDS011;73143;45.456;11.064;2023-12-20T07:11:06;18.90;;;11.20;;
68744;SDS011;73143;45.456;11.064;2023-12-20T07:13:43;17.20;;;10.60;;
68744;SDS011;73143;45.456;11.064;2023-12-20T07:16:21;16.50;;;10.50;;
68744;SDS011;73143;45.456;11.064;2023-12-20T07:18:58;16.50;;;9.70;;
68744;SDS011;73143;45.456;11.064;2023-12-20T07:21:35;17.40;;;10.40;;
68744;SDS011;73143;45.456;11.064;2023-12-20T07:24:13;18.90;;;9.90;;
68744;SDS011;73143;45.456;11.064;2023-12-20T07:26:50;17.40;;;10.00;;
68744;SDS011;73143;45.456;11.064;2023-12-20T07:29:27;22.10;;;10.30;;
68744;SDS011;73143;45.456;11.064;2023-12-20T07:32:06;71.20;;;29.90;;
68744;SDS011;73143;45.456;11.064;2023-12-20T07:34:44;51.70;;;20.60;;
68744;SDS011;73143;45.456;11.064;2023-12-20T07:37:22;52.10;;;23.30;;
68744;SDS011;73143;45.456;11.064;2023-12-20T07:39:59;43.00;;;19.70;;
68744;SDS011;73143;45.456;11.064;2023-12-20T07:42:36;27.70;;;13.80;;
68744;SDS011;73143;45.456;11.064;2023-12-20T07:45:13;23.80;;;11.90;;
68744;SDS011;73143;45.456;11.064;2023-12-20T07:47:51;16.00;;;9.80;;
68744;SDS011;73143;45.456;11.064;2023-12-20T07:50:28;21.30;;;12.70;;
68744;SDS011;73143;45.456;11.064;2023-12-20T07:53:07;20.00;;;12.90;;
68744;SDS011;73143;45.456;11.064;2023-12-20T07:55:43;24.00;;;13.90;;
68744;SDS011;73143;45.456;11.064;2023-12-20T07:58:20;19.80;;;11.80;;
68744;SDS011;73143;45.456;11.064;2023-12-20T08:01:16;21.00;;;12.40;;
68744;SDS011;73143;45.456;11.064;2023-12-20T08:03:54;19.00;;;12.20;;
68744;SDS011;73143;45.456;11.064;2023-12-20T08:06:31;20.10;;;13.40;;
68744;SDS011;73143;45.456;11.064;2023-12-20T08:09:07;21.10;;;12.20;;
68744;SDS011;73143;45.456;11.064;2023-12-20T08:11:46;22.20;;;11.90;;
68744;SDS011;73143;45.456;11.064;2023-12-20T08:14:23;19.70;;;10.90;;
68744;SDS011;73143;45.456;11.064;2023-12-20T08:17:01;21.00;;;11.50;;
68744;SDS011;73143;45.456;11.064;2023-12-20T08:19:42;20.50;;;12.00;;
68744;SDS011;73143;45.456;11.064;2023-12-20T08:22:19;17.60;;;11.40;;
68744;SDS011;73143;45.456;11.064;2023-12-20T08:24:56;18.60;;;11.50;;
68744;SDS011;73143;45.456;11.064;2023-12-20T08:27:33;20.60;;;12.00;;
68744;SDS011;73143;45.456;11.064;2023-12-20T08:30:13;20.90;;;13.90;;
68744;SDS011;73143;45.456;11.064;2023-12-20T08:32:53;24.10;;;13.30;;
68744;SDS011;73143;45.456;11.064;2023-12-20T08:35:29;23.60;;;13.90;;
68744;SDS011;73143;45.456;11.064;2023-12-20T08:38:06;20.30;;;12.80;;
68744;SDS011;73143;45.456;11.064;2023-12-20T08:40:43;21.70;;;12.40;;
68744;SDS011;73143;45.456;11.064;2023-12-20T08:43:20;19.20;;;12.50;;
68744;SDS011;73143;45.456;11.064;2023-12-20T08:45:57;20.90;;;13.00;;
68744;SDS011;73143;45.456;11.064;2023-12-20T08:48:34;20.60;;;12.50;;
68744;SDS011;73143;45.456;11.064;2023-12-20T08:51:12;18.30;;;11.50;;
68744;SDS011;73143;45.456;11.064;2023-12-20T08:53:49;19.20;;;12.40;;
68744;SDS011;73143;45.456;11.064;2023-12-20T08:56:25;19.70;;;12.90;;
68744;SDS011;73143;45.456;11.064;2023-12-20T08:59:02;23.60;;;12.70;;
68744;SDS011;73143;45.456;11.064;2023-12-20T09:01:39;19.20;;;12.30;;
68744;SDS011;73143;45.456;11.064;2023-12-20T09:04:16;22.00;;;13.50;;
68744;SDS011;73143;45.456;11.064;2023-12-20T09:06:53;21.50;;;12.90;;
68744;SDS011;73143;45.456;11.064;2023-12-20T09:09:30;24.40;;;12.00;;
68744;SDS011;73143;45.456;11.064;2023-12-20T09:12:11;21.90;;;13.20;;
68744;SDS011;73143;45.456;11.064;2023-12-20T09:14:50;30.70;;;14.00;;
68744;SDS011;73143;45.456;11.064;2023-12-20T09:17:28;26.90;;;15.10;;
68744;SDS011;73143;45.456;11.064;2023-12-20T09:20:07;26.20;;;15.40;;
68744;SDS011;73143;45.456;11.064;2023-12-20T09:22:46;28.50;;;16.10;;
68744;SDS011;73143;45.456;11.064;2023-12-20T09:25:23;35.80;;;15.40;;
68744;SDS011;73143;45.456;11.064;2023-12-20T09:27:59;30.50;;;16.40;;
68744;SDS011;73143;45.456;11.064;2023-12-20T09:30:37;31.40;;;16.40;;
68744;SDS011;73143;45.456;11.064;2023-12-20T09:33:14;30.70;;;16.20;;
68744;SDS011;73143;45.456;11.064;2023-12-20T09:35:50;31.00;;;17.00;;
68744;SDS011;73143;45.456;11.064;2023-12-20T09:38:27;27.70;;;17.20;;
68744;SDS011;73143;45.456;11.064;2023-12-20T09:41:04;39.70;;;19.20;;
68744;SDS011;73143;45.456;11.064;2023-12-20T09:43:42;28.40;;;17.60;;
68744;SDS011;73143;45.456;11.064;2023-12-20T09:46:23;28.80;;;16.70;;
68744;SDS011;73143;45.456;11.064;2023-12-20T09:49:03;33.10;;;17.70;;
68744;SDS011;73143;45.456;11.064;2023-12-20T09:51:41;31.70;;;17.40;;
68744;SDS011;73143;45.456;11.064;2023-12-20T09:54:20;27.90;;;17.50;;
68744;SDS011;73143;45.456;11.064;2023-12-20T09:56:57;28.40;;;16.60;;
68744;SDS011;73143;45.456;11.064;2023-12-20T09:59:34;30.40;;;17.30;;
68744;SDS011;73143;45.456;11.064;2023-12-20T10:02:14;31.80;;;17.60;;
68744;SDS011;73143;45.456;11.064;2023-12-20T10:04:56;30.00;;;16.90;;
68744;SDS011;73143;45.456;11.064;2023-12-20T10:07:35;28.90;;;15.90;;
68744;SDS011;73143;45.456;11.064;2023-12-20T10:10:14;35.60;;;17.70;;
68744;SDS011;73143;45.456;11.064;2023-12-20T10:13:08;23.10;;;14.40;;
68744;SDS011;73143;45.456;11.064;2023-12-20T10:15:46;27.60;;;15.90;;
68744;SDS011;73143;45.456;11.064;2023-12-20T10:18:23;24.90;;;14.90;;
68744;SDS011;73143;45.456;11.064;2023-12-20T10:21:10;25.70;;;15.40;;
68744;SDS011;73143;45.456;11.064;2023-12-20T10:23:47;23.80;;;14.90;;
68744;SDS011;73143;45.456;11.064;2023-12-20T10:26:25;21.50;;;14.20;;
68744;SDS011;73143;45.456;11.064;2023-12-20T10:29:04;21.80;;;14.00;;
68744;SDS011;73143;45.456;11.064;2023-12-20T10:31:40;23.60;;;15.30;;
68744;SDS011;73143;45.456;11.064;2023-12-20T10:34:18;24.20;;;14.40;;
68744;SDS011;73143;45.456;11.064;2023-12-20T10:36:55;27.10;;;12.80;;
68744;SDS011;73143;45.456;11.064;2023-12-20T10:39:33;25.30;;;15.10;;
68744;SDS011;73143;45.456;11.064;2023-12-20T10:42:11;23.50;;;14.00;;
68744;SDS011;73143;45.456;11.064;2023-12-20T10:44:48;22.40;;;14.10;;
68744;SDS011;73143;45.456;11.064;2023-12-20T10:47:29;23.40;;;14.20;;
68744;SDS011;73143;45.456;11.064;2023-12-20T10:50:12;28.30;;;13.20;;
68744;SDS011;73143;45.456;11.064;2023-12-20T10:52:51;27.40;;;15.10;;
68744;SDS011;73143;45.456;11.064;2023-12-20T10:55:29;26.20;;;14.30;;
68744;SDS011;73143;45.456;11.064;2023-12-20T10:58:09;23.30;;;15.00;;
68744;SDS011;73143;45.456;11.064;2023-12-20T11:00:48;22.70;;;14.60;;
68744;SDS011;73143;45.456;11.064;2023-12-20T11:03:35;23.40;;;14.70;;
68744;SDS011;73143;45.456;11.064;2023-12-20T11:06:26;28.40;;;16.20;;
68744;SDS011;73143;45.456;11.064;2023-12-20T11:09:16;27.10;;;15.90;;
68744;SDS011;73143;45.456;11.064;2023-12-20T11:12:06;27.30;;;15.10;;
68744;SDS011;73143;45.456;11.064;2023-12-20T11:14:51;24.30;;;15.40;;
68744;SDS011;73143;45.456;11.064;2023-12-20T11:17:28;27.00;;;16.10;;
68744;SDS011;73143;45.456;11.064;2023-12-20T11:20:13;29.50;;;15.90;;
68744;SDS011;73143;45.456;11.064;2023-12-20T11:22:56;31.30;;;17.80;;
68744;SDS011;73143;45.456;11.064;2023-12-20T11:25:47;31.30;;;17.30;;
68744;SDS011;73143;45.456;11.064;2023-12-20T11:28:27;26.30;;;16.50;;
68744;SDS011;73143;45.456;11.064;2023-12-20T11:31:05;26.00;;;17.30;;
68744;SDS011;73143;45.456;11.064;2023-12-20T11:33:42;24.60;;;16.20;;
68744;SDS011;73143;45.456;11.064;2023-12-20T11:36:20;28.50;;;15.50;;
68744;SDS011;73143;45.456;11.064;2023-12-20T11:39:06;22.80;;;14.20;;
68744;SDS011;73143;45.456;11.064;2023-12-20T11:41:46;31.90;;;18.10;;
68744;SDS011;73143;45.456;11.064;2023-12-20T11:44:27;25.00;;;16.00;;
68744;SDS011;73143;45.456;11.064;2023-12-20T11:47:08;25.90;;;14.70;;
68744;SDS011;73143;45.456;11.064;2023-12-20T11:49:49;23.90;;;14.60;;
68744;SDS011;73143;45.456;11.064;2023-12-20T11:52:27;21.20;;;13.80;;
68744;SDS011;73143;45.456;11.064;2023-12-20T11:55:04;22.40;;;14.70;;
68744;SDS011;73143;45.456;11.064;2023-12-20T11:57:42;28.90;;;15.60;;
68744;SDS011;73143;45.456;11.064;2023-12-20T12:00:21;23.70;;;14.50;;
68744;SDS011;73143;45.456;11.064;2023-12-20T12:03:01;25.30;;;14.80;;
68744;SDS011;73143;45.456;11.064;2023-12-20T12:05:41;24.00;;;15.60;;
68744;SDS011;73143;45.456;11.064;2023-12-20T12:08:20;22.30;;;14.80;;
68744;SDS011;73143;45.456;11.064;2023-12-20T12:10:58;24.10;;;14.50;;
68744;SDS011;73143;45.456;11.064;2023-12-20T12:13:36;21.20;;;14.30;;
68744;SDS011;73143;45.456;11.064;2023-12-20T12:16:12;24.60;;;13.20;;
68744;SDS011;73143;45.456;11.064;2023-12-20T12:18:58;23.60;;;13.60;;
68744;SDS011;73143;45.456;11.064;2023-12-20T12:21:35;24.30;;;12.40;;
68744;SDS011;73143;45.456;11.064;2023-12-20T12:24:13;22.20;;;12.60;;
68744;SDS011;73143;45.456;11.064;2023-12-20T12:26:59;21.20;;;14.00;;
68744;SDS011;73143;45.456;11.064;2023-12-20T12:29:36;18.50;;;12.50;;
68744;SDS011;73143;45.456;11.064;2023-12-20T12:32:14;21.20;;;11.80;;
68744;SDS011;73143;45.456;11.064;2023-12-20T12:34:53;22.10;;;12.40;;
68744;SDS011;73143;45.456;11.064;2023-12-20T12:37:30;22.80;;;13.60;;
68744;SDS011;73143;45.456;11.064;2023-12-20T12:40:12;22.70;;;13.90;;
68744;SDS011;73143;45.456;11.064;2023-12-20T12:42:49;22.00;;;13.20;;
68744;SDS011;73143;45.456;11.064;2023-12-20T12:45:25;20.00;;;13.20;;
68744;SDS011;73143;45.456;11.064;2023-12-20T12:48:01;20.80;;;13.30;;
68744;SDS011;73143;45.456;11.064;2023-12-20T12:50:40;21.30;;;13.20;;
68744;SDS011;73143;45.456;11.064;2023-12-20T12:53:17;19.00;;;13.60;;
68744;SDS011;73143;45.456;11.064;2023-12-20T12:55:53;19.50;;;12.60;;
68744;SDS011;73143;45.456;11.064;2023-12-20T12:58:30;22.80;;;12.60;;
68744;SDS011;73143;45.456;11.064;2023-12-20T13:01:08;24.70;;;13.60;;
68744;SDS011;73143;45.456;11.064;2023-12-20T13:03:45;23.90;;;14.30;;
68744;SDS011;73143;45.456;11.064;2023-12-20T13:06:22;20.00;;;12.70;;
68744;SDS011;73143;45.456;11.064;2023-12-20T13:08:59;21.70;;;13.50;;
68744;SDS011;73143;45.456;11.064;2023-12-20T13:11:36;24.60;;;13.00;;
68744;SDS011;73143;45.456;11.064;2023-12-20T13:14:13;18.60;;;12.30;;
68744;SDS011;73143;45.456;11.064;2023-12-20T13:16:51;20.40;;;11.70;;
68744;SDS011;73143;45.456;11.064;2023-12-20T13:19:28;22.10;;;12.70;;
68744;SDS011;73143;45.456;11.064;2023-12-20T13:22:06;20.30;;;13.00;;
68744;SDS011;73143;45.456;11.064;2023-12-20T13:24:43;23.70;;;13.10;;
68744;SDS011;73143;45.456;11.064;2023-12-20T13:27:20;22.10;;;13.70;;
68744;SDS011;73143;45.456;11.064;2023-12-20T13:29:57;22.10;;;13.70;;
68744;SDS011;73143;45.456;11.064;2023-12-20T13:32:35;21.00;;;13.20;;
68744;SDS011;73143;45.456;11.064;2023-12-20T13:35:12;22.50;;;13.00;;
68744;SDS011;73143;45.456;11.064;2023-12-20T13:37:51;20.80;;;13.10;;
68744;SDS011;73143;45.456;11.064;2023-12-20T13:40:29;22.90;;;13.50;;
68744;SDS011;73143;45.456;11.064;2023-12-20T13:43:08;20.90;;;13.20;;
68744;SDS011;73143;45.456;11.064;2023-12-20T13:45:46;17.50;;;11.80;;
68744;SDS011;73143;45.456;11.064;2023-12-20T13:48:22;20.70;;;12.60;;
68744;SDS011;73143;45.456;11.064;2023-12-20T13:50:59;23.00;;;12.80;;
68744;SDS011;73143;45.456;11.064;2023-12-20T13:53:37;20.50;;;13.00;;
68744;SDS011;73143;45.456;11.064;2023-12-20T13:56:14;24.30;;;13.50;;
68744;SDS011;73143;45.456;11.064;2023-12-20T13:58:51;23.40;;;12.80;;
68744;SDS011;73143;45.456;11.064;2023-12-20T14:01:29;21.20;;;13.30;;
68744;SDS011;73143;45.456;11.064;2023-12-20T14:04:06;22.00;;;14.20;;
68744;SDS011;73143;45.456;11.064;2023-12-20T14:07:03;25.80;;;14.10;;
68744;SDS011;73143;45.456;11.064;2023-12-20T14:09:41;25.30;;;14.50;;
68744;SDS011;73143;45.456;11.064;2023-12-20T14:12:18;24.60;;;14.70;;
68744;SDS011;73143;45.456;11.064;2023-12-20T14:14:55;21.70;;;14.30;;
68744;SDS011;73143;45.456;11.064;2023-12-20T14:17:32;24.10;;;15.70;;
68744;SDS011;73143;45.456;11.064;2023-12-20T14:20:11;31.50;;;16.60;;
68744;SDS011;73143;45.456;11.064;2023-12-20T14:22:48;27.70;;;17.50;;
68744;SDS011;73143;45.456;11.064;2023-12-20T14:25:25;32.30;;;17.10;;
68744;SDS011;73143;45.456;11.064;2023-12-20T14:28:16;27.30;;;16.80;;
68744;SDS011;73143;45.456;11.064;2023-12-20T14:30:53;37.60;;;20.10;;
68744;SDS011;73143;45.456;11.064;2023-12-20T14:33:31;34.80;;;20.00;;
68744;SDS011;73143;45.456;11.064;2023-12-20T14:36:10;32.00;;;19.30;;
68744;SDS011;73143;45.456;11.064;2023-12-20T14:38:48;33.10;;;18.90;;
68744;SDS011;73143;45.456;11.064;2023-12-20T14:41:26;35.40;;;20.50;;
68744;SDS011;73143;45.456;11.064;2023-12-20T14:44:04;36.70;;;20.90;;
68744;SDS011;73143;45.456;11.064;2023-12-20T14:46:40;35.40;;;21.70;;
68744;SDS011;73143;45.456;11.064;2023-12-20T14:49:17;31.40;;;20.80;;
68744;SDS011;73143;45.456;11.064;2023-12-20T14:51:54;34.50;;;20.30;;
68744;SDS011;73143;45.456;11.064;2023-12-20T14:54:31;36.00;;;21.70;;
68744;SDS011;73143;45.456;11.064;2023-12-20T14:57:08;36.30;;;18.60;;
68744;SDS011;73143;45.456;11.064;2023-12-20T14:59:44;29.00;;;18.70;;
68744;SDS011;73143;45.456;11.064;2023-12-20T15:02:21;29.30;;;18.10;;
68744;SDS011;73143;45.456;11.064;2023-12-20T15:04:57;28.60;;;17.80;;
68744;SDS011;73143;45.456;11.064;2023-12-20T15:07:35;27.50;;;18.40;;
68744;SDS011;73143;45.456;11.064;2023-12-20T15:10:14;35.80;;;19.80;;
68744;SDS011;73143;45.456;11.064;2023-12-20T15:12:52;32.20;;;18.90;;
68744;SDS011;73143;45.456;11.064;2023-12-20T15:15:30;29.60;;;18.10;;